Bremen, Ohio
Current Conditions -  °F | °C
As of 3:53 PM on Thursday 23 Oct 2014 (Local Time) from KLHQ Reporting Station
Clear Clear  
Wind Chill: 60°   Ceiling: Unl
Heat Index: 60°   Visibility: 10mi
Dew Point: 42°   Wind: 7mph
Humidity: 51%   Direction: 320°NW
Pressure: 30.14"   Gusts: NA
Location:  39.7°N, 82.43°W
Report Text: KLHQ 231953Z AUTO 32006KT 10SM CLR 16/06 A3014 RMK AO2 SLP207 T01560056
Loading
Personal Weather Stations






























Interactive Weather Map
Tropical Storm Tracking
New forecast layout! Learn more

10-Day Weather Forecast

Advertisements
Track Severe Weather on mobile